Аэропорт: Ханты-Мансийск. Ханты-Мансийск

ICAO: USHH

METAR:
2019-11-21 09:00:00
USHH 210900Z 28002MPS CAVOK M13/M16 Q1025 R24/820235 NOSIG
METAR:
2019-11-21 07:51:00
TAF USHH 210751Z 2109/2209 27003G08MPS 9999 BKN016 TEMPO 2109/2115 -SN FEW007 BKN016 TEMPO 2115/2206 6000 -SHSN BKN016CB BECMG 2204/2206 22003G08MPS